Time;durP1;ratioP1;P1;durP2;ratioP2;P2;SDS_P1;SDS_P2;PMS_P1;PMS_P2;Temp;Humidity;BMP_temperature;BMP_pressure;BME280_temperature;BME280_humidity;BME280_pressure;Samples;Min_cycle;Max_cycle;Signal;HPM_P1;HPM_P2
2021/12/23 00:00:12;;;;;;;201.23;62.75;;;-5.60;99.90;;;;;;4977548;28;20039;-87
2021/12/23 00:02:41;;;;;;;216.85;66.28;;;-5.50;99.90;;;;;;4976733;28;20034;-87
2021/12/23 00:05:10;;;;;;;214.20;63.92;;;-5.40;99.90;;;;;;4976955;28;20010;-88
2021/12/23 00:07:37;;;;;;;213.07;63.78;;;-5.30;99.90;;;;;;4960772;28;20030;-87
2021/12/23 00:10:08;;;;;;;196.98;63.72;;;-5.30;99.90;;;;;;4977027;28;20038;-87
2021/12/23 00:12:45;;;;;;;193.57;63.35;;;-5.30;99.90;;;;;;4976853;28;20041;-87
2021/12/23 00:15:37;;;;;;;151.07;55.63;;;-5.30;99.90;;;;;;4976252;28;20035;-87
2021/12/23 00:18:17;;;;;;;157.50;53.78;;;-5.40;99.90;;;;;;4976928;28;20035;-86
2021/12/23 00:25:47;;;;;;;148.77;54.30;;;-5.40;99.90;;;;;;4961529;28;20031;-86
2021/12/23 00:28:13;;;;;;;134.10;50.60;;;-5.50;99.90;;;;;;4978408;28;20031;-88
2021/12/23 00:30:38;;;;;;;144.77;50.22;;;-5.50;99.90;;;;;;4978168;28;20093;-87
2021/12/23 00:33:05;;;;;;;141.10;51.88;;;-5.60;99.90;;;;;;4961992;28;20035;-88
2021/12/23 00:35:31;;;;;;;137.18;49.15;;;-5.60;99.90;;;;;;4980371;28;20521;-87
2021/12/23 00:38:01;;;;;;;126.47;48.00;;;-5.70;99.90;;;;;;4979540;28;20027;-86
2021/12/23 00:40:28;;;;;;;117.35;47.30;;;-5.70;99.90;;;;;;4969209;28;20042;-88
2021/12/23 00:42:55;;;;;;;145.32;50.47;;;-5.80;99.90;;;;;;4984801;28;20395;-88
2021/12/23 00:45:22;;;;;;;138.27;49.50;;;-5.80;99.90;;;;;;4982188;28;20458;-88
2021/12/23 00:47:48;;;;;;;127.65;48.88;;;-5.80;99.90;;;;;;4980022;28;20027;-88
2021/12/23 00:50:15;;;;;;;134.52;49.67;;;-5.80;99.90;;;;;;4982929;28;20073;-89
2021/12/23 00:52:41;;;;;;;138.15;49.88;;;-5.90;99.90;;;;;;4980987;28;20122;-87
2021/12/23 00:55:10;;;;;;;136.48;51.40;;;-5.90;99.90;;;;;;4978617;28;20069;-87
2021/12/23 00:57:39;;;;;;;124.15;47.90;;;-5.80;99.90;;;;;;4963058;28;20027;-88
2021/12/23 01:00:10;;;;;;;135.00;47.53;;;-5.80;99.90;;;;;;4978660;28;20035;-86
2021/12/23 01:02:37;;;;;;;128.20;47.42;;;-5.80;99.90;;;;;;4976305;28;20035;-87
2021/12/23 01:05:09;;;;;;;135.35;48.33;;;-5.90;99.90;;;;;;4975748;28;20121;-87
2021/12/23 01:07:35;;;;;;;135.65;49.20;;;-5.90;99.90;;;;;;4975857;28;20391;-87
2021/12/23 01:10:01;;;;;;;130.88;47.15;;;-6.00;99.90;;;;;;4976338;28;20034;-87
2021/12/23 01:12:33;;;;;;;125.25;46.45;;;-6.10;99.90;;;;;;4976205;28;20030;-87
2021/12/23 01:15:13;;;;;;;122.32;45.53;;;-6.20;99.90;;;;;;4978197;28;20031;-87
2021/12/23 01:18:00;;;;;;;128.50;44.47;;;-6.20;99.90;;;;;;4979672;28;20042;-87
2021/12/23 01:20:35;;;;;;;129.60;45.88;;;-6.20;99.90;;;;;;4979864;28;20059;-87
2021/12/23 01:23:07;;;;;;;146.43;49.28;;;-6.20;99.90;;;;;;4979324;28;20131;-88
2021/12/23 01:25:36;;;;;;;129.07;48.05;;;-6.10;99.90;;;;;;4979274;28;20030;-87
2021/12/23 01:28:03;;;;;;;134.15;47.40;;;-6.00;99.90;;;;;;4979951;28;20023;-87
2021/12/23 01:30:30;;;;;;;138.15;49.80;;;-5.80;99.90;;;;;;4979733;28;20027;-87
2021/12/23 01:32:57;;;;;;;152.23;52.20;;;-5.90;99.90;;;;;;4980154;28;20034;-86
2021/12/23 01:35:25;;;;;;;135.35;49.67;;;-5.90;99.90;;;;;;4978604;28;20099;-87
2021/12/23 01:37:51;;;;;;;148.80;50.33;;;-6.00;99.90;;;;;;4979507;28;20093;-87
2021/12/23 01:40:19;;;;;;;144.68;51.42;;;-6.00;99.90;;;;;;4979777;28;20181;-87
2021/12/23 01:42:45;;;;;;;148.50;48.20;;;-6.00;99.90;;;;;;4978800;28;20078;-87
2021/12/23 01:45:15;;;;;;;142.68;49.30;;;-6.00;99.90;;;;;;4978945;28;20085;-87
2021/12/23 01:47:42;;;;;;;136.88;50.08;;;-6.10;99.90;;;;;;4978455;28;20102;-87
2021/12/23 01:50:11;;;;;;;129.80;47.33;;;-6.20;99.90;;;;;;4979792;28;20117;-86
2021/12/23 01:52:38;;;;;;;128.40;46.80;;;-6.20;99.90;;;;;;4979471;28;20030;-86
2021/12/23 01:55:09;;;;;;;134.38;46.97;;;-6.20;99.90;;;;;;4978597;28;20475;-87
2021/12/23 01:57:35;;;;;;;129.77;46.88;;;-6.20;99.90;;;;;;4978752;28;20058;-87
2021/12/23 02:00:05;;;;;;;128.45;46.08;;;-6.10;99.90;;;;;;4978786;28;20517;-87
2021/12/23 02:02:39;;;;;;;131.68;49.00;;;-6.10;99.90;;;;;;4978971;28;20061;-87
2021/12/23 02:05:06;;;;;;;128.35;47.38;;;-6.10;99.90;;;;;;4978589;28;20077;-87
2021/12/23 02:07:32;;;;;;;141.48;51.13;;;-6.00;99.90;;;;;;4962449;28;20069;-86
2021/12/23 02:09:58;;;;;;;152.63;51.15;;;-5.80;99.90;;;;;;4978808;28;20066;-86
2021/12/23 02:12:25;;;;;;;137.57;49.05;;;-5.80;99.90;;;;;;4978597;28;20039;-86
2021/12/23 02:14:51;;;;;;;151.30;52.10;;;-5.70;99.90;;;;;;4978608;28;20059;-87
2021/12/23 02:17:17;;;;;;;138.88;50.25;;;-5.60;99.90;;;;;;4979005;28;20050;-87
2021/12/23 02:19:43;;;;;;;153.60;52.60;;;-5.50;99.90;;;;;;4978231;28;20133;-86
2021/12/23 02:22:08;;;;;;;149.00;52.25;;;-5.50;99.90;;;;;;4978371;28;20042;-87
2021/12/23 02:24:34;;;;;;;145.82;53.70;;;-5.40;99.90;;;;;;4962234;28;20517;-86
2021/12/23 02:27:00;;;;;;;151.05;52.53;;;-5.40;99.90;;;;;;4961659;28;20042;-86
2021/12/23 02:29:26;;;;;;;149.77;50.88;;;-5.40;99.90;;;;;;4978531;28;20027;-87
2021/12/23 02:31:54;;;;;;;152.10;51.40;;;-5.40;99.90;;;;;;4978571;28;20483;-89
2021/12/23 02:34:21;;;;;;;151.85;51.72;;;-5.40;99.90;;;;;;4978381;28;20041;-87
2021/12/23 02:36:55;;;;;;;144.95;49.90;;;-5.40;99.90;;;;;;4978022;28;20037;-86
2021/12/23 02:39:22;;;;;;;145.77;49.17;;;-5.40;99.90;;;;;;4977937;28;20043;-85
2021/12/23 02:41:48;;;;;;;144.70;50.92;;;-5.40;99.90;;;;;;4978232;28;20037;-86
2021/12/23 02:44:15;;;;;;;155.48;54.05;;;-5.40;99.90;;;;;;4978206;28;20113;-86
2021/12/23 02:46:41;;;;;;;144.98;50.38;;;-5.40;99.90;;;;;;4946434;28;20041;-86
2021/12/23 02:49:07;;;;;;;155.52;52.78;;;-5.40;99.90;;;;;;4977719;28;20129;-86
2021/12/23 02:51:33;;;;;;;150.85;52.28;;;-5.30;99.90;;;;;;4961924;28;20027;-85
2021/12/23 02:53:59;;;;;;;151.38;50.15;;;-5.30;99.90;;;;;;4977752;28;20494;-86
2021/12/23 02:56:25;;;;;;;147.80;52.22;;;-5.30;99.90;;;;;;4978040;28;20030;-86
2021/12/23 02:58:51;;;;;;;140.80;50.50;;;-5.30;99.90;;;;;;4978265;28;20037;-87
2021/12/23 03:01:19;;;;;;;152.20;51.83;;;-5.30;99.90;;;;;;4978099;28;20031;-85
2021/12/23 03:03:45;;;;;;;152.07;51.78;;;-5.30;99.90;;;;;;4977862;28;20391;-86
2021/12/23 03:06:12;;;;;;;153.65;53.33;;;-5.30;99.90;;;;;;4978150;28;20035;-86
2021/12/23 03:08:40;;;;;;;152.40;53.47;;;-5.30;99.90;;;;;;4977869;28;20046;-86
2021/12/23 03:11:09;;;;;;;146.65;49.20;;;-5.30;99.90;;;;;;4961650;28;20546;-87
2021/12/23 03:13:35;;;;;;;150.35;52.63;;;-5.30;99.90;;;;;;4978336;28;20026;-87
2021/12/23 03:16:02;;;;;;;146.38;51.47;;;-5.30;99.90;;;;;;4977939;28;20070;-88
2021/12/23 03:18:28;;;;;;;162.50;56.35;;;-5.30;99.90;;;;;;4977854;28;20264;-87
2021/12/23 03:20:55;;;;;;;168.45;53.20;;;-5.40;99.90;;;;;;4977743;28;20038;-87
2021/12/23 03:23:20;;;;;;;139.25;50.53;;;-5.40;99.90;;;;;;4977006;28;20578;-87
2021/12/23 03:25:46;;;;;;;139.95;51.60;;;-5.40;99.90;;;;;;4976979;28;20073;-86
2021/12/23 03:28:12;;;;;;;149.07;53.50;;;-5.40;99.90;;;;;;4976717;28;20031;-87
2021/12/23 03:30:38;;;;;;;141.48;52.65;;;-5.40;99.90;;;;;;4977273;28;20423;-87
2021/12/23 03:33:05;;;;;;;146.98;51.78;;;-5.40;99.90;;;;;;4976914;28;20054;-87
2021/12/23 03:35:31;;;;;;;148.07;52.47;;;-5.40;99.90;;;;;;4977251;28;20039;-87
2021/12/23 03:37:57;;;;;;;158.57;53.28;;;-5.40;99.90;;;;;;4975873;28;20539;-87
2021/12/23 03:40:23;;;;;;;153.18;53.20;;;-5.40;99.90;;;;;;4977084;28;20035;-87
2021/12/23 03:42:49;;;;;;;151.30;52.88;;;-5.40;99.90;;;;;;4976486;28;20039;-87
2021/12/23 03:45:16;;;;;;;147.77;52.65;;;-5.40;99.90;;;;;;4976533;28;20062;-87
2021/12/23 03:47:42;;;;;;;153.90;52.58;;;-5.40;99.90;;;;;;4977008;28;20515;-87
2021/12/23 03:50:09;;;;;;;161.75;55.75;;;-5.40;99.90;;;;;;4977016;28;20561;-87
2021/12/23 03:52:35;;;;;;;151.18;50.75;;;-5.40;99.90;;;;;;4977188;28;20053;-87
2021/12/23 03:55:02;;;;;;;146.77;52.20;;;-5.40;99.90;;;;;;4976830;28;20045;-87
2021/12/23 03:57:28;;;;;;;154.60;51.13;;;-5.40;99.90;;;;;;4976978;28;20105;-87
2021/12/23 03:59:54;;;;;;;147.15;49.42;;;-5.30;99.90;;;;;;4976778;28;20066;-87
2021/12/23 04:02:20;;;;;;;156.57;52.67;;;-5.30;99.90;;;;;;4976998;28;20106;-87
2021/12/23 04:04:45;;;;;;;153.50;51.45;;;-5.40;99.90;;;;;;4977219;28;20026;-87
2021/12/23 04:07:11;;;;;;;146.10;52.15;;;-5.30;99.90;;;;;;4976932;28;20406;-87
2021/12/23 04:09:37;;;;;;;146.13;51.10;;;-5.30;99.90;;;;;;4976664;28;20120;-88
2021/12/23 04:12:03;;;;;;;153.90;51.72;;;-5.30;99.90;;;;;;4977536;28;20155;-87
2021/12/23 04:14:29;;;;;;;151.40;52.70;;;-5.40;99.90;;;;;;4977363;28;20042;-88
2021/12/23 04:16:55;;;;;;;161.75;53.40;;;-5.40;99.90;;;;;;4976769;28;20035;-87
2021/12/23 04:19:20;;;;;;;161.15;52.30;;;-5.40;99.90;;;;;;4976993;28;20442;-88
2021/12/23 04:21:46;;;;;;;162.75;52.13;;;-5.40;99.90;;;;;;4976598;28;20038;-88
2021/12/23 04:24:12;;;;;;;158.63;52.67;;;-5.40;99.90;;;;;;4976265;28;20427;-88
2021/12/23 04:26:39;;;;;;;162.45;54.95;;;-5.50;99.90;;;;;;4976803;28;20474;-87
2021/12/23 04:29:06;;;;;;;150.27;54.03;;;-5.50;99.90;;;;;;4976502;28;20085;-88
2021/12/23 04:31:32;;;;;;;150.18;52.70;;;-5.50;99.90;;;;;;4976388;28;20134;-87
2021/12/23 04:33:58;;;;;;;140.90;48.53;;;-5.50;99.90;;;;;;4976271;28;20034;-87
2021/12/23 04:36:29;;;;;;;147.18;50.95;;;-5.50;99.90;;;;;;4976423;28;20041;-87
2021/12/23 04:38:55;;;;;;;149.50;51.97;;;-5.50;99.90;;;;;;4976423;28;20505;-88
2021/12/23 04:41:21;;;;;;;145.20;49.42;;;-5.50;99.90;;;;;;4975292;28;20042;-87
2021/12/23 04:43:47;;;;;;;135.98;48.67;;;-5.50;99.90;;;;;;4975651;28;20748;-87
2021/12/23 04:46:13;;;;;;;141.52;50.58;;;-5.50;99.90;;;;;;4960560;28;20056;-88
2021/12/23 04:48:39;;;;;;;142.77;48.50;;;-5.60;99.90;;;;;;4977096;28;20027;-88
2021/12/23 04:51:05;;;;;;;144.27;49.40;;;-5.60;99.90;;;;;;4975763;28;20041;-88
2021/12/23 04:53:31;;;;;;;136.32;50.13;;;-5.60;99.90;;;;;;4974424;28;20042;-87
2021/12/23 04:55:57;;;;;;;138.95;48.80;;;-5.60;99.90;;;;;;4975665;28;20034;-88
2021/12/23 04:58:23;;;;;;;142.75;48.90;;;-5.60;99.90;;;;;;4976631;28;20386;-87
2021/12/23 05:00:50;;;;;;;142.23;50.65;;;-5.50;99.90;;;;;;4976388;28;20046;-88
2021/12/23 05:03:21;;;;;;;130.90;46.92;;;-5.50;99.90;;;;;;4975142;28;20046;-88
2021/12/23 05:05:48;;;;;;;134.52;49.97;;;-5.60;99.90;;;;;;4976297;28;20066;-87
2021/12/23 05:08:14;;;;;;;140.80;49.00;;;-5.60;99.90;;;;;;4959735;28;20212;-87
2021/12/23 05:10:40;;;;;;;138.57;50.50;;;-5.60;99.90;;;;;;4976687;28;20081;-88
2021/12/23 05:13:06;;;;;;;132.13;49.17;;;-5.50;99.90;;;;;;4976212;28;20019;-87
2021/12/23 05:15:32;;;;;;;138.20;49.28;;;-5.50;99.90;;;;;;4975732;28;20039;-88
2021/12/23 05:17:59;;;;;;;136.13;48.58;;;-5.30;99.90;;;;;;4975526;28;20095;-88
2021/12/23 05:20:25;;;;;;;148.57;52.17;;;-5.20;99.90;;;;;;4975672;28;20041;-88
2021/12/23 05:22:50;;;;;;;138.85;51.20;;;-5.10;99.90;;;;;;4975631;28;20057;-87
2021/12/23 05:25:17;;;;;;;144.30;51.83;;;-5.10;99.90;;;;;;4975564;28;20031;-88
2021/12/23 05:27:45;;;;;;;142.27;52.13;;;-5.00;99.90;;;;;;4975409;28;20062;-87
2021/12/23 05:30:15;;;;;;;155.70;54.22;;;-5.00;99.90;;;;;;4975917;28;20042;-87
2021/12/23 05:32:42;;;;;;;152.27;53.03;;;-5.00;99.90;;;;;;4959235;28;20403;-87
2021/12/23 05:35:09;;;;;;;149.43;51.97;;;-4.90;99.90;;;;;;4975142;28;20038;-87
2021/12/23 05:37:36;;;;;;;157.27;52.15;;;-4.90;99.90;;;;;;4975425;28;20038;-88
2021/12/23 05:40:03;;;;;;;150.00;50.53;;;-4.90;99.90;;;;;;4975228;28;20042;-87
2021/12/23 05:42:28;;;;;;;140.55;49.47;;;-4.90;99.90;;;;;;4974426;28;20071;-87
2021/12/23 05:44:54;;;;;;;149.05;50.17;;;-4.90;99.90;;;;;;4975255;28;20054;-88
2021/12/23 05:47:20;;;;;;;142.15;52.20;;;-4.80;99.90;;;;;;4975419;28;20030;-87
2021/12/23 05:49:46;;;;;;;146.65;50.53;;;-4.80;99.90;;;;;;4975383;28;20041;-87
2021/12/23 05:52:11;;;;;;;158.82;52.47;;;-4.90;99.90;;;;;;4975333;28;20089;-87
2021/12/23 05:54:37;;;;;;;133.15;47.90;;;-4.90;99.90;;;;;;4974988;28;20039;-87
2021/12/23 05:57:03;;;;;;;142.43;50.58;;;-5.00;99.90;;;;;;4974672;28;20035;-88
2021/12/23 05:59:33;;;;;;;135.63;49.75;;;-5.00;99.90;;;;;;4975361;28;20509;-87
2021/12/23 06:02:00;;;;;;;139.13;48.90;;;-5.00;99.90;;;;;;4976972;28;20039;-87
2021/12/23 06:04:26;;;;;;;144.77;50.90;;;-5.00;99.90;;;;;;4978700;28;20285;-87
2021/12/23 06:06:52;;;;;;;135.70;49.65;;;-5.00;99.90;;;;;;4978713;28;20133;-88
2021/12/23 06:09:18;;;;;;;129.55;47.70;;;-5.00;99.90;;;;;;4978716;28;20038;-88
2021/12/23 06:11:43;;;;;;;126.72;48.17;;;-5.00;99.90;;;;;;4978637;28;20035;-87
2021/12/23 06:14:09;;;;;;;133.45;46.55;;;-5.00;99.90;;;;;;4978695;28;20034;-86
2021/12/23 06:16:35;;;;;;;128.60;47.00;;;-5.00;99.90;;;;;;4978946;28;20042;-87
2021/12/23 06:19:01;;;;;;;131.80;47.33;;;-5.10;99.90;;;;;;4978909;28;20031;-86
2021/12/23 06:21:29;;;;;;;146.05;48.50;;;-5.10;99.90;;;;;;4978979;28;20529;-87
2021/12/23 06:23:55;;;;;;;129.25;47.50;;;-5.10;99.90;;;;;;4978755;28;20030;-86
2021/12/23 06:26:21;;;;;;;128.73;47.25;;;-5.00;99.90;;;;;;4978133;28;20532;-86
2021/12/23 06:28:48;;;;;;;131.05;48.60;;;-4.90;99.90;;;;;;4978637;28;20031;-88
2021/12/23 06:31:14;;;;;;;126.63;47.72;;;-5.00;99.90;;;;;;4979849;28;20023;-87
2021/12/23 06:33:41;;;;;;;124.95;45.03;;;-5.00;99.90;;;;;;4948637;28;20034;-87
2021/12/23 06:36:07;;;;;;;130.38;46.35;;;-5.00;99.90;;;;;;4982385;28;20046;-87
2021/12/23 06:38:35;;;;;;;133.45;48.20;;;-5.00;99.90;;;;;;4982345;28;20027;-88
2021/12/23 06:41:01;;;;;;;133.43;48.03;;;-5.00;99.90;;;;;;4966372;28;20041;-87
2021/12/23 06:43:27;;;;;;;126.05;44.60;;;-5.00;99.90;;;;;;4980831;28;20041;-88
2021/12/23 06:45:53;;;;;;;129.65;44.70;;;-5.10;99.90;;;;;;4981653;28;20094;-87
2021/12/23 06:48:19;;;;;;;140.52;47.70;;;-5.10;99.90;;;;;;4981247;28;20041;-88
2021/12/23 06:50:45;;;;;;;127.10;45.55;;;-5.10;99.90;;;;;;4979879;28;20027;-88
2021/12/23 06:53:13;;;;;;;117.55;45.00;;;-5.10;99.90;;;;;;4981350;28;20121;-88
2021/12/23 06:55:40;;;;;;;127.15;44.28;;;-5.20;99.90;;;;;;4980739;28;20030;-88
2021/12/23 06:58:06;;;;;;;129.90;45.78;;;-5.30;99.90;;;;;;4983910;28;20406;-89
2021/12/23 07:00:32;;;;;;;126.10;43.53;;;-5.20;99.90;;;;;;4983117;28;20030;-87
2021/12/23 07:02:58;;;;;;;118.07;43.05;;;-5.30;99.90;;;;;;4982254;28;20034;-88
2021/12/23 07:05:25;;;;;;;131.40;44.78;;;-5.20;99.90;;;;;;4981703;28;20035;-88
2021/12/23 07:08:23;;;;;;;121.70;42.20;;;-5.20;99.90;;;;;;4980614;28;20063;-87
2021/12/23 07:10:37;;;;;;;119.72;44.90;;;-5.30;99.90;;;;;;4983526;28;20070;-89
2021/12/23 07:13:04;;;;;;;127.43;45.28;;;-5.20;99.90;;;;;;4981336;28;20031;-87
2021/12/23 07:15:32;;;;;;;118.93;45.58;;;-5.20;99.90;;;;;;4963611;28;20051;-88
2021/12/23 07:17:59;;;;;;;126.55;42.80;;;-5.20;99.90;;;;;;4980195;28;20038;-87
2021/12/23 07:20:26;;;;;;;107.40;39.42;;;-5.20;99.90;;;;;;4980270;28;20039;-87
2021/12/23 07:22:52;;;;;;;116.50;40.70;;;-5.10;99.90;;;;;;4977937;28;20383;-88
2021/12/23 07:25:19;;;;;;;125.13;42.28;;;-5.00;99.90;;;;;;4965189;28;20031;-88
2021/12/23 07:27:44;;;;;;;116.60;42.60;;;-4.90;99.90;;;;;;4979425;28;20077;-88
2021/12/23 07:30:13;;;;;;;130.73;43.38;;;-4.80;99.90;;;;;;4980198;28;20030;-86
2021/12/23 07:32:40;;;;;;;124.60;42.38;;;-4.70;99.90;;;;;;4978722;28;20027;-87
2021/12/23 07:35:07;;;;;;;121.82;42.55;;;-4.60;99.90;;;;;;4978734;28;20031;-88
2021/12/23 07:37:32;;;;;;;115.72;42.85;;;-4.60;99.90;;;;;;4963384;28;20039;-87
2021/12/23 07:39:58;;;;;;;122.00;46.28;;;-4.50;99.90;;;;;;4978408;28;20038;-87
2021/12/23 07:42:26;;;;;;;115.30;43.80;;;-4.50;99.90;;;;;;4978700;28;20510;-88
2021/12/23 07:44:52;;;;;;;111.15;41.13;;;-4.50;99.90;;;;;;4977919;28;20070;-88
2021/12/23 07:47:18;;;;;;;115.10;41.08;;;-4.40;99.90;;;;;;4979309;28;20066;-88
2021/12/23 07:49:45;;;;;;;126.40;44.78;;;-4.40;99.90;;;;;;4980289;28;20368;-87
2021/12/23 07:52:11;;;;;;;104.57;42.05;;;-4.40;99.90;;;;;;4962642;28;20521;-88
2021/12/23 07:54:38;;;;;;;118.45;42.63;;;-4.40;99.90;;;;;;4975506;28;20445;-87
2021/12/23 07:57:04;;;;;;;138.70;53.75;;;-4.50;99.90;;;;;;4975523;28;20065;-87
2021/12/23 07:59:30;;;;;;;125.00;45.30;;;-4.40;99.90;;;;;;4975593;28;20528;-87
2021/12/23 08:01:56;;;;;;;114.30;42.92;;;-4.30;99.90;;;;;;4976617;28;20133;-87
2021/12/23 08:04:23;;;;;;;118.57;45.08;;;-4.20;99.90;;;;;;4975863;28;20390;-88
2021/12/23 08:06:55;;;;;;;113.70;43.92;;;-4.20;99.90;;;;;;4976221;28;20030;-87
2021/12/23 08:09:22;;;;;;;118.93;43.97;;;-4.20;99.90;;;;;;4960222;28;20027;-88
2021/12/23 08:11:48;;;;;;;106.43;41.17;;;-4.10;99.90;;;;;;4976288;28;20035;-88
2021/12/23 08:14:14;;;;;;;110.88;43.38;;;-4.10;99.90;;;;;;4975928;28;20038;-87
2021/12/23 08:16:40;;;;;;;133.23;43.05;;;-4.10;99.90;;;;;;4976095;28;20069;-89
2021/12/23 08:19:06;;;;;;;123.78;41.47;;;-4.00;99.90;;;;;;4977732;28;20031;-88
2021/12/23 08:21:32;;;;;;;98.85;40.15;;;-4.00;99.90;;;;;;4975551;28;20126;-88
2021/12/23 08:23:57;;;;;;;102.47;39.10;;;-3.90;99.90;;;;;;4975228;28;20058;-89
2021/12/23 08:26:28;;;;;;;108.47;40.45;;;-3.90;99.90;;;;;;4976031;28;20031;-88
2021/12/23 08:28:55;;;;;;;113.20;40.53;;;-3.80;99.90;;;;;;4975540;28;20093;-85
2021/12/23 08:31:21;;;;;;;94.38;35.70;;;-3.70;99.90;;;;;;4975855;28;20031;-86
2021/12/23 08:33:48;;;;;;;108.03;41.28;;;-3.60;99.90;;;;;;4975278;28;20039;-86
2021/12/23 08:36:14;;;;;;;108.78;39.53;;;-3.50;99.90;;;;;;4975173;28;20035;-86
2021/12/23 08:38:41;;;;;;;104.78;39.35;;;-3.30;99.90;;;;;;4977061;28;20066;-85
2021/12/23 08:41:08;;;;;;;101.13;39.30;;;-3.20;99.90;;;;;;4975596;28;20035;-86
2021/12/23 08:43:34;;;;;;;94.07;37.53;;;-3.00;99.90;;;;;;4974325;28;20037;-86
2021/12/23 08:46:00;;;;;;;92.63;35.67;;;-2.90;99.90;;;;;;4975318;28;20031;-85
2021/12/23 08:48:25;;;;;;;88.32;34.15;;;-2.70;99.90;;;;;;4975048;28;20085;-86
2021/12/23 08:50:51;;;;;;;83.97;34.97;;;-2.50;99.90;;;;;;4974654;28;20062;-86
2021/12/23 08:53:17;;;;;;;93.07;35.53;;;-2.40;99.90;;;;;;4974371;28;20061;-85
2021/12/23 08:55:43;;;;;;;97.53;37.05;;;-2.30;99.90;;;;;;4974876;28;20494;-86
2021/12/23 08:58:09;;;;;;;85.55;34.58;;;-2.20;99.90;;;;;;4958552;28;20035;-86
2021/12/23 09:00:38;;;;;;;86.20;35.88;;;-2.10;99.90;;;;;;4974813;28;20045;-85
2021/12/23 09:03:05;;;;;;;86.93;35.83;;;-2.00;99.90;;;;;;4974127;28;20034;-84
2021/12/23 09:05:32;;;;;;;134.80;50.10;;;-1.90;99.90;;;;;;4974028;28;20034;-85
2021/12/23 09:07:58;;;;;;;90.45;37.90;;;-1.90;99.90;;;;;;4973850;28;20035;-85
2021/12/23 09:10:24;;;;;;;85.03;36.53;;;-1.90;99.90;;;;;;4975405;28;20029;-85
2021/12/23 09:12:51;;;;;;;73.63;31.58;;;-1.80;99.90;;;;;;4974220;28;20169;-85
2021/12/23 09:15:18;;;;;;;69.10;32.25;;;-1.70;99.90;;;;;;4974968;28;20471;-85
2021/12/23 09:17:44;;;;;;;70.82;30.63;;;-1.60;99.90;;;;;;4973892;28;20042;-85
2021/12/23 09:20:14;;;;;;;84.15;32.63;;;-1.60;99.90;;;;;;4958725;28;20396;-88
2021/12/23 09:22:41;;;;;;;72.07;29.95;;;-1.60;99.90;;;;;;4973765;28;20031;-86
2021/12/23 09:25:12;;;;;;;68.80;31.23;;;-1.60;99.90;;;;;;4957795;28;20037;-86
2021/12/23 09:27:53;;;;;;;65.90;29.65;;;-1.70;99.90;;;;;;4974597;28;20035;-86
2021/12/23 09:33:04;;;;;;;85.40;34.05;;;-1.60;99.90;;;;;;4957440;28;20101;-87
2021/12/23 09:35:32;;;;;;;70.13;29.65;;;-1.60;99.90;;;;;;4973820;28;20027;-87
2021/12/23 09:38:00;;;;;;;64.47;28.42;;;-1.50;99.90;;;;;;4977529;28;20450;-87
2021/12/23 09:40:29;;;;;;;62.38;29.58;;;-1.50;99.90;;;;;;4979115;28;20042;-87
2021/12/23 09:43:03;;;;;;;71.43;30.83;;;-1.40;99.90;;;;;;4977721;28;20039;-87
2021/12/23 09:45:29;;;;;;;70.97;29.58;;;-1.40;99.90;;;;;;4961878;28;20090;-87
2021/12/23 09:47:56;;;;;;;65.07;27.80;;;-1.30;99.90;;;;;;4977657;28;20430;-87
2021/12/23 09:50:25;;;;;;;69.90;32.53;;;-1.30;99.90;;;;;;4977872;28;20042;-87
2021/12/23 09:52:53;;;;;;;63.08;28.38;;;-1.20;99.90;;;;;;4977904;28;20461;-86
2021/12/23 09:55:22;;;;;;;66.38;28.23;;;-1.20;99.90;;;;;;4977601;28;20397;-86
2021/12/23 09:57:49;;;;;;;72.90;30.20;;;-1.20;99.90;;;;;;4977305;28;20723;-86
2021/12/23 10:00:18;;;;;;;69.10;28.25;;;-1.10;99.90;;;;;;4977802;28;20093;-87
2021/12/23 10:02:44;;;;;;;63.72;28.25;;;-1.10;99.90;;;;;;4961223;28;20042;-87
2021/12/23 10:05:20;;;;;;;66.28;29.67;;;-1.00;99.90;;;;;;4945222;28;20089;-86
2021/12/23 10:07:47;;;;;;;72.63;29.60;;;-1.00;99.90;;;;;;4977323;28;20050;-87
2021/12/23 10:10:21;;;;;;;64.13;26.60;;;-0.90;99.90;;;;;;4977212;28;20058;-86
2021/12/23 10:32:30;;;;;;;63.13;27.35;;;-0.50;99.90;;;;;;4961240;28;20038;-85
2021/12/23 10:38:13;;;;;;;57.75;26.05;;;-0.50;99.90;;;;;;4960406;28;20035;-87
2021/12/23 10:40:43;;;;;;;62.40;25.85;;;-0.40;99.90;;;;;;4977088;28;20035;-87
2021/12/23 10:43:11;;;;;;;63.75;28.00;;;-0.40;99.90;;;;;;4976442;28;20041;-87
2021/12/23 10:45:55;;;;;;;66.65;27.65;;;-0.30;99.90;;;;;;4962111;28;20117;-86
2021/12/23 10:48:21;;;;;;;55.30;27.90;;;-0.30;99.90;;;;;;4976760;28;20050;-86
2021/12/23 10:50:51;;;;;;;57.75;27.38;;;-0.30;99.90;;;;;;4974383;28;20061;-86
2021/12/23 10:53:39;;;;;;;62.40;27.48;;;-0.30;99.90;;;;;;4975367;28;20026;-86
2021/12/23 10:59:13;;;;;;;69.82;29.58;;;-0.30;99.90;;;;;;4977612;28;20089;-85
2021/12/23 11:02:06;;;;;;;59.80;26.17;;;-0.30;99.90;;;;;;4976262;28;20038;-86
2021/12/23 11:04:47;;;;;;;65.75;26.17;;;-0.30;99.90;;;;;;4977476;28;20039;-86
2021/12/23 11:07:23;;;;;;;56.78;26.70;;;-0.30;99.90;;;;;;4975977;28;20078;-86
2021/12/23 11:10:02;;;;;;;63.20;24.95;;;-0.30;99.90;;;;;;4976361;28;20504;-86
2021/12/23 11:37:56;;;;;;;63.53;27.92;;;0.30;99.90;;;;;;4958508;28;20077;-85
2021/12/23 11:40:48;;;;;;;60.35;26.50;;;0.30;99.90;;;;;;4975956;28;20054;-85
2021/12/23 11:45:48;;;;;;;62.67;26.88;;;0.40;99.90;;;;;;4975828;28;20037;-85
2021/12/23 11:48:15;;;;;;;54.15;26.10;;;0.40;99.90;;;;;;4974976;28;20035;-85
2021/12/23 11:50:53;;;;;;;64.05;25.98;;;0.50;99.90;;;;;;4974478;28;20058;-86
2021/12/23 11:53:25;;;;;;;59.58;25.13;;;0.50;99.90;;;;;;4974824;28;20041;-86
2021/12/23 11:55:52;;;;;;;58.80;25.50;;;0.60;99.90;;;;;;4974724;28;20479;-86
2021/12/23 11:58:23;;;;;;;52.55;23.98;;;0.70;99.90;;;;;;4974365;28;20041;-85
2021/12/23 12:01:01;;;;;;;;;;;0.70;99.90;;;;;;4974610;28;20450;-85
2021/12/23 12:03:27;;;;;;;56.42;23.85;;;0.80;99.90;;;;;;4974309;28;19920;-86
2021/12/23 12:06:15;;;;;;;48.08;22.02;;;0.80;99.90;;;;;;4974270;28;20037;-86
2021/12/23 12:08:41;;;;;;;53.50;24.02;;;0.90;99.90;;;;;;4959247;28;20521;-85
2021/12/23 12:11:17;;;;;;;56.20;23.95;;;0.90;99.90;;;;;;4974590;28;20042;-87
2021/12/23 12:13:43;;;;;;;50.75;23.23;;;0.90;99.90;;;;;;4975880;28;20027;-86
2021/12/23 12:16:37;;;;;;;52.55;23.17;;;0.90;99.90;;;;;;4975189;28;20118;-87
2021/12/23 12:19:04;;;;;;;50.35;23.50;;;0.90;99.90;;;;;;4958397;28;20094;-87
2021/12/23 12:21:34;;;;;;;53.97;23.60;;;0.90;99.90;;;;;;4974222;28;20129;-87
2021/12/23 12:24:15;;;;;;;57.65;25.60;;;0.90;99.90;;;;;;4974167;28;20037;-87
2021/12/23 12:27:03;;;;;;;54.13;24.92;;;0.90;99.90;;;;;;4974238;28;20026;-86
2021/12/23 12:29:35;;;;;;;49.03;22.90;;;0.90;99.90;;;;;;4974227;28;20045;-87
2021/12/23 12:32:01;;;;;;;44.10;21.35;;;0.90;99.90;;;;;;4974020;28;20578;-86
2021/12/23 12:34:32;;;;;;;51.67;23.20;;;1.00;99.90;;;;;;4973708;28;20031;-86
2021/12/23 12:36:59;;;;;;;;;;;1.10;99.90;;;;;;4958572;28;20035;-87
2021/12/23 12:39:40;;;;;;;52.13;22.67;;;1.10;99.90;;;;;;4958196;28;19964;-87
2021/12/23 12:42:10;;;;;;;44.83;22.17;;;1.20;99.90;;;;;;4973918;28;20041;-84
2021/12/23 12:44:54;;;;;;;50.17;21.55;;;1.20;99.90;;;;;;4973958;28;20039;-85
2021/12/23 12:47:25;;;;;;;47.35;22.65;;;1.30;99.90;;;;;;4973939;28;20070;-86
2021/12/23 12:50:03;;;;;;;45.53;21.97;;;1.30;99.90;;;;;;4942433;28;20031;-84
2021/12/23 12:52:35;;;;;;;46.45;21.85;;;1.30;99.90;;;;;;4972724;28;20050;-85
2021/12/23 12:55:03;;;;;;;45.00;21.33;;;1.40;99.90;;;;;;4941625;28;20448;-84
2021/12/23 12:57:36;;;;;;;48.00;22.98;;;1.40;99.90;;;;;;4958308;28;20455;-84
2021/12/23 13:00:17;;;;;;;47.47;21.15;;;1.40;99.90;;;;;;4973486;28;20387;-85
2021/12/23 13:02:56;;;;;;;48.55;22.40;;;1.50;99.90;;;;;;4973534;28;20134;-84
2021/12/23 13:05:42;;;;;;;44.38;20.90;;;1.50;99.90;;;;;;4957430;28;20041;-86
2021/12/23 13:08:29;;;;;;;47.28;22.35;;;1.50;99.90;;;;;;4958443;28;20031;-85
2021/12/23 13:11:12;;;;;;;47.67;22.77;;;1.50;99.90;;;;;;4971090;28;20087;-85
2021/12/23 13:14:01;;;;;;;45.75;22.02;;;1.50;99.90;;;;;;4974378;28;20057;-85
2021/12/23 13:17:02;;;;;;;54.42;21.27;;;1.50;99.90;;;;;;4953327;29;20028;-86
2021/12/23 13:19:34;;;;;;;50.97;23.33;;;1.60;99.90;;;;;;4957536;28;20035;-88
2021/12/23 13:22:05;;;;;;;50.70;22.85;;;1.60;99.90;;;;;;4973910;28;20453;-87
2021/12/23 13:24:32;;;;;;;41.70;19.50;;;1.80;99.90;;;;;;4961005;28;20120;-85
2021/12/23 13:26:59;;;;;;;32.35;17.10;;;1.80;99.90;;;;;;4974242;28;20038;-87
2021/12/23 13:29:28;;;;;;;38.70;17.92;;;1.90;99.90;;;;;;4973164;28;20038;-87
2021/12/23 13:31:56;;;;;;;37.20;17.75;;;1.90;99.90;;;;;;4956930;28;20062;-89